Time;durP1;ratioP1;P1;durP2;ratioP2;P2;SDS_P1;SDS_P2;PMS_P1;PMS_P2;Temp;Humidity;BMP_temperature;BMP_pressure;BME280_temperature;BME280_humidity;BME280_pressure;Samples;Min_cycle;Max_cycle;Signal;HPM_P1;HPM_P2
2021/07/16 00:01:44;;;;;;;508.67;106.23;;;;;;;;;;5035599;28;20453;-76
2021/07/16 00:04:10;;;;;;;518.53;109.20;;;;;;;;;;5032961;28;20428;-76
2021/07/16 00:06:37;;;;;;;503.10;106.70;;;;;;;;;;5035188;28;20450;-76
2021/07/16 00:09:03;;;;;;;509.80;108.70;;;;;;;;;;5035209;28;20422;-76
2021/07/16 00:11:30;;;;;;;504.73;106.13;;;;;;;;;;5016166;28;20408;-76
2021/07/16 00:13:56;;;;;;;500.07;104.70;;;;;;;;;;5030724;28;20473;-76
2021/07/16 00:16:22;;;;;;;510.40;109.73;;;;;;;;;;5015568;28;20442;-76
2021/07/16 00:18:48;;;;;;;513.17;109.43;;;;;;;;;;5015527;28;20404;-76
2021/07/16 00:21:14;;;;;;;518.97;112.20;;;;;;;;;;5028795;28;20775;-76
2021/07/16 00:23:42;;;;;;;508.33;106.40;;;;;;;;;;5032086;28;20418;-76
2021/07/16 00:26:08;;;;;;;501.60;104.93;;;;;;;;;;5015295;28;20540;-76
2021/07/16 00:28:34;;;;;;;511.97;108.20;;;;;;;;;;5014844;28;20479;-76
2021/07/16 00:31:00;;;;;;;501.60;104.00;;;;;;;;;;5015380;28;20421;-76
2021/07/16 00:33:26;;;;;;;507.37;106.60;;;;;;;;;;5015722;28;21060;-76
2021/07/16 00:35:52;;;;;;;504.03;105.53;;;;;;;;;;5030901;28;20488;-76
2021/07/16 00:38:18;;;;;;;508.90;103.20;;;;;;;;;;5034872;28;20407;-76
2021/07/16 00:40:44;;;;;;;507.37;105.70;;;;;;;;;;5029173;28;20443;-76
2021/07/16 00:43:10;;;;;;;524.23;110.67;;;;;;;;;;5014778;28;20396;-76
2021/07/16 00:45:36;;;;;;;521.20;112.30;;;;;;;;;;5014892;28;21041;-76
2021/07/16 00:48:02;;;;;;;496.07;102.07;;;;;;;;;;5028949;28;20771;-76
2021/07/16 00:50:30;;;;;;;594.93;130.37;;;;;;;;;;5017150;28;20416;-76
2021/07/16 00:52:57;;;;;;;659.27;148.03;;;;;;;;;;5014350;28;20882;-76
2021/07/16 00:55:23;;;;;;;591.27;130.83;;;;;;;;;;5027865;28;20423;-76
2021/07/16 00:57:49;;;;;;;641.07;148.43;;;;;;;;;;5034509;28;20418;-76
2021/07/16 01:00:15;;;;;;;601.20;136.20;;;;;;;;;;5025781;28;20502;-76
2021/07/16 01:02:42;;;;;;;607.10;164.30;;;;;;;;;;5014803;28;20404;-76
2021/07/16 01:05:09;;;;;;;606.90;160.87;;;;;;;;;;5037397;28;20897;-76
2021/07/16 01:07:35;;;;;;;741.17;200.87;;;;;;;;;;5013883;28;20404;-76
2021/07/16 01:10:02;;;;;;;466.10;98.03;;;;;;;;;;5030702;28;20446;-76
2021/07/16 01:12:30;;;;;;;474.97;102.70;;;;;;;;;;5033957;28;20388;-76
2021/07/16 01:14:56;;;;;;;467.30;99.03;;;;;;;;;;5032892;28;20441;-76
2021/07/16 01:17:22;;;;;;;478.37;104.63;;;;;;;;;;5033866;28;20399;-76
2021/07/16 01:20:04;;;;;;;473.37;101.30;;;;;;;;;;5034233;28;20419;-76
2021/07/16 01:22:30;;;;;;;484.53;102.20;;;;;;;;;;5028908;28;20414;-76
2021/07/16 01:24:58;;;;;;;484.27;105.57;;;16.10;1.00;;;;;;5028630;28;20451;-76
2021/07/16 01:27:24;;;;;;;472.10;98.93;;;;;;;;;;5014170;28;20409;-76
2021/07/16 01:29:50;;;;;;;478.67;101.20;;;;;;;;;;5033466;28;20470;-76
2021/07/16 01:32:18;;;;;;;477.27;101.90;;;16.20;1.00;;;;;;5033956;28;20448;-76
2021/07/16 01:34:47;;;;;;;472.47;100.40;;;;;;;;;;5033874;28;20431;-76
2021/07/16 01:37:14;;;;;;;467.20;98.57;;;16.30;99.90;;;;;;5032174;28;20863;-76
2021/07/16 01:39:41;;;;;;;429.10;93.27;;;;;;;;;;5022513;28;20453;-76
2021/07/16 01:42:07;;;;;;;424.43;91.73;;;16.40;1.00;;;;;;5033516;28;20426;-76
2021/07/16 01:44:33;;;;;;;425.00;90.60;;;;;;;;;;5032958;28;20554;-76
2021/07/16 01:47:00;;;;;;;429.90;91.93;;;16.50;1.00;;;;;;5032396;28;20764;-76
2021/07/16 01:49:27;;;;;;;443.37;94.73;;;;;;;;;;5033844;28;20415;-77
2021/07/16 01:51:53;;;;;;;465.73;101.00;;;;;;;;;;5033879;28;20546;-77
2021/07/16 01:54:19;;;;;;;463.10;99.87;;;;;;;;;;5033058;28;20514;-77
2021/07/16 01:56:45;;;;;;;474.60;101.87;;;;;;;;;;5033162;28;20423;-77
2021/07/16 01:59:11;;;;;;;477.47;102.97;;;;;;;;;;5033022;28;20822;-77
2021/07/16 02:01:37;;;;;;;439.70;94.50;;;;;;;;;;5023672;28;20438;-77
2021/07/16 02:04:03;;;;;;;459.50;98.07;;;;;;;;;;5023861;28;20430;-77
2021/07/16 02:06:30;;;;;;;496.03;108.23;;;;;;;;;;5032501;28;20499;-77
2021/07/16 02:08:57;;;;;;;478.63;102.43;;;;;;;;;;5032428;28;20436;-77
2021/07/16 02:11:23;;;;;;;466.07;100.17;;;;;;;;;;5033336;28;20403;-77
2021/07/16 02:13:49;;;;;;;477.50;102.57;;;;;;;;;;5032438;28;20901;-77
2021/07/16 02:16:16;;;;;;;479.70;104.40;;;;;;;;;;5031833;28;20422;-77
2021/07/16 02:18:46;;;;;;;473.80;102.90;;;;;;;;;;5033140;28;20423;-76
2021/07/16 02:21:12;;;;;;;483.73;105.30;;;;;;;;;;5032796;28;20482;-77
2021/07/16 02:23:38;;;;;;;494.23;107.90;;;;;;;;;;5032144;28;20435;-77
2021/07/16 02:26:04;;;;;;;490.80;106.90;;;;;;;;;;5030029;28;20455;-77
2021/07/16 02:28:31;;;;;;;493.53;108.70;;;;;;;;;;5032047;28;20409;-78
2021/07/16 02:31:02;;;;;;;501.83;110.63;;;17.00;1.00;;;;;;5022285;28;20413;-78
2021/07/16 02:33:28;;;;;;;494.53;108.40;;;;;;;;;;5032034;28;20449;-77
2021/07/16 02:35:55;;;;;;;504.50;110.23;;;;;;;;;;5033082;28;20431;-78
2021/07/16 02:38:22;;;;;;;495.20;107.00;;;;;;;;;;5030314;28;20442;-78
2021/07/16 02:40:48;;;;;;;491.73;106.00;;;;;;;;;;5031516;28;20408;-77
2021/07/16 02:43:15;;;;;;;491.10;105.90;;;;;;;;;;5032806;28;20416;-77
2021/07/16 02:45:41;;;;;;;489.87;106.37;;;;;;;;;;5032651;28;20448;-77
2021/07/16 02:48:07;;;;;;;492.63;106.13;;;;;;;;;;5031812;28;20473;-77
2021/07/16 02:50:39;;;;;;;507.17;112.20;;;17.10;1.00;;;;;;5032848;28;20479;-77
2021/07/16 02:53:07;;;;;;;425.97;94.40;;;17.10;1.00;;;;;;5025835;28;20431;-77
2021/07/16 02:55:34;;;;;;;442.53;97.63;;;17.00;1.00;;;;;;5022118;28;20423;-77
2021/07/16 02:58:00;;;;;;;448.63;98.27;;;;;;;;;;5026776;28;20422;-77
2021/07/16 03:00:29;;;;;;;475.23;103.40;;;17.00;1.00;;;;;;5030367;28;20954;-77
2021/07/16 03:02:55;;;;;;;474.00;104.17;;;;;;;;;;5032085;28;20426;-77
2021/07/16 03:05:25;;;;;;;468.60;102.03;;;;;;;;;;5032623;28;20807;-77
2021/07/16 03:07:51;;;;;;;474.07;102.73;;;;;;;;;;5025073;28;20421;-77
2021/07/16 03:10:20;;;;;;;470.60;101.03;;;;;;;;;;5020135;28;20411;-78
2021/07/16 03:12:46;;;;;;;486.40;101.20;;;;;;;;;;5031698;28;20498;-77
2021/07/16 03:15:13;;;;;;;475.13;103.20;;;;;;;;;;5032077;28;20431;-77
2021/07/16 03:17:39;;;;;;;486.00;105.30;;;;;;;;;;5029992;28;20423;-77
2021/07/16 03:20:10;;;;;;;478.50;103.87;;;;;;;;;;5027329;28;20417;-77
2021/07/16 03:22:36;;;;;;;478.77;104.10;;;;;;;;;;5012519;28;20400;-78
2021/07/16 03:25:04;;;;;;;475.17;103.13;;;16.80;1.00;;;;;;5015207;28;20537;-78
2021/07/16 03:27:30;;;;;;;492.80;108.90;;;;;;;;;;5029973;28;20403;-78
2021/07/16 03:29:56;;;;;;;467.73;103.60;;;;;;;;;;5031375;28;20400;-78
2021/07/16 03:32:22;;;;;;;474.30;104.60;;;;;;;;;;5031482;28;20519;-78
2021/07/16 03:34:48;;;;;;;478.03;101.83;;;;;;;;;;5032374;28;20399;-76
2021/07/16 03:37:14;;;;;;;480.13;103.40;;;;;;;;;;5027762;28;20460;-76
2021/07/16 03:39:41;;;;;;;493.80;107.40;;;;;;;;;;5031183;28;20415;-76
2021/07/16 03:42:07;;;;;;;498.13;105.67;;;;;;;;;;5030102;28;20506;-76
2021/07/16 03:44:33;;;;;;;501.60;110.03;;;;;;;;;;5031990;28;20397;-76
2021/07/16 03:46:59;;;;;;;485.60;105.00;;;;;;;;;;5016669;28;20463;-76
2021/07/16 03:49:26;;;;;;;490.97;106.43;;;;;;;;;;5011735;28;20400;-76
2021/07/16 03:51:52;;;;;;;506.73;111.73;;;;;;;;;;5017046;28;20423;-78
2021/07/16 03:54:18;;;;;;;490.23;105.87;;;;;;;;;;5028142;28;20892;-78
2021/07/16 03:56:44;;;;;;;502.50;112.23;;;;;;;;;;5031774;28;20435;-77
2021/07/16 03:59:11;;;;;;;486.33;104.67;;;;;;;;;;5026514;28;20474;-77
2021/07/16 04:01:37;;;;;;;498.93;110.03;;;;;;;;;;5011811;28;20759;-77
2021/07/16 04:04:03;;;;;;;493.07;105.40;;;;;;;;;;5012128;28;20479;-78
2021/07/16 04:06:31;;;;;;;487.53;106.20;;;;;;;;;;5012055;28;20543;-76
2021/07/16 04:09:10;;;;;;;490.10;106.10;;;;;;;;;;5025608;28;20417;-76
2021/07/16 04:11:37;;;;;;;501.07;111.57;;;17.10;1.00;;;;;;5031504;28;20391;-74
2021/07/16 04:14:04;;;;;;;500.57;109.57;;;;;;;;;;5020062;28;20418;-73
2021/07/16 04:16:30;;;;;;;514.57;115.50;;;;;;;;;;5011042;28;20495;-73
2021/07/16 04:18:56;;;;;;;504.40;110.07;;;;;;;;;;5013010;28;20514;-74
2021/07/16 04:21:22;;;;;;;508.03;107.87;;;;;;;;;;5028390;28;20475;-75
2021/07/16 04:23:48;;;;;;;505.80;112.20;;;;;;;;;;5029260;28;20473;-75
2021/07/16 04:26:14;;;;;;;497.37;107.90;;;;;;;;;;5034600;28;20801;-75
2021/07/16 04:28:39;;;;;;;504.17;110.00;;;;;;;;;;5035033;28;20472;-75
2021/07/16 04:31:05;;;;;;;504.17;110.60;;;;;;;;;;5035028;28;20419;-75
2021/07/16 04:33:31;;;;;;;499.10;110.07;;;;;;;;;;5023161;28;20444;-75
2021/07/16 04:35:57;;;;;;;505.93;109.40;;;;;;;;;;5015321;28;20868;-75
2021/07/16 04:38:23;;;;;;;507.60;110.40;;;;;;;;;;5027902;28;20503;-75
2021/07/16 04:40:49;;;;;;;513.80;111.90;;;;;;;;;;5034570;28;20393;-77
2021/07/16 04:43:15;;;;;;;503.57;109.87;;;;;;;;;;5031274;28;20425;-77
2021/07/16 04:45:41;;;;;;;541.90;123.33;;;;;;;;;;5031695;28;20456;-77
2021/07/16 04:48:08;;;;;;;506.60;108.73;;;;;;;;;;5034698;28;20393;-82
2021/07/16 04:50:34;;;;;;;515.20;113.67;;;;;;;;;;5035004;28;20401;-85
2021/07/16 04:53:00;;;;;;;512.93;114.37;;;;;;;;;;5025057;28;20419;-84
2021/07/16 04:55:26;;;;;;;517.17;115.33;;;;;;;;;;5014390;28;20798;-84
2021/07/16 04:57:52;;;;;;;508.73;112.03;;;;;;;;;;5029900;28;20427;-82
2021/07/16 05:00:18;;;;;;;516.27;114.87;;;;;;;;;;5028634;28;20453;-80
2021/07/16 05:02:45;;;;;;;512.47;113.47;;;;;;;;;;5031708;28;20912;-82
2021/07/16 05:05:11;;;;;;;527.90;117.43;;;;;;;;;;5032274;28;20488;-81
2021/07/16 05:07:37;;;;;;;514.17;113.47;;;;;;;;;;5014362;28;20407;-78
2021/07/16 05:10:04;;;;;;;516.47;113.17;;;;;;;;;;5030565;28;20817;-78
2021/07/16 05:12:30;;;;;;;520.73;115.90;;;;;;;;;;5032989;28;20449;-78
2021/07/16 05:14:56;;;;;;;514.83;115.90;;;;;;;;;;5034260;28;20409;-81
2021/07/16 05:17:22;;;;;;;531.57;124.00;;;;;;;;;;5027751;28;20437;-80
2021/07/16 05:19:48;;;;;;;514.70;117.20;;;;;;;;;;5033416;28;20437;-80
2021/07/16 05:22:14;;;;;;;516.50;117.77;;;;;;;;;;5031422;28;20425;-83
2021/07/16 05:24:40;;;;;;;514.00;115.03;;;;;;;;;;5033834;28;20901;-79
2021/07/16 05:27:06;;;;;;;521.63;118.20;;;;;;;;;;5034034;28;20564;-80
2021/07/16 05:29:35;;;;;;;513.60;115.77;;;;;;;;;;5033067;28;20505;-79
2021/07/16 05:32:01;;;;;;;486.77;113.37;;;;;;;;;;5032108;28;20478;-79
2021/07/16 05:34:27;;;;;;;504.27;114.90;;;;;;;;;;5044108;28;20483;-79
2021/07/16 05:36:53;;;;;;;530.20;123.80;;;;;;;;;;5029681;28;20894;-73
2021/07/16 05:39:19;;;;;;;517.63;119.70;;;;;;;;;;5019251;28;20422;-74
2021/07/16 05:41:45;;;;;;;522.53;122.97;;;;;;;;;;5033795;28;20387;-74
2021/07/16 05:44:11;;;;;;;525.20;120.70;;;;;;;;;;5027495;28;20477;-74
2021/07/16 05:46:37;;;;;;;517.73;118.37;;;;;;;;;;5023714;28;20520;-74
2021/07/16 05:49:03;;;;;;;516.77;119.87;;;;;;;;;;5033461;28;20399;-74
2021/07/16 05:51:29;;;;;;;520.37;120.37;;;;;;;;;;5033279;28;20487;-79
2021/07/16 05:53:55;;;;;;;524.70;122.37;;;;;;;;;;5030417;28;20434;-79
2021/07/16 05:56:21;;;;;;;522.20;122.73;;;;;;;;;;5031127;28;20465;-77
2021/07/16 05:58:47;;;;;;;543.53;128.90;;;;;;;;;;5030326;28;20436;-77
2021/07/16 06:01:13;;;;;;;520.77;118.73;;;;;;;;;;5032737;28;20418;-78
2021/07/16 06:03:39;;;;;;;493.27;118.27;;;;;;;;;;5032482;28;20425;-78
2021/07/16 06:06:05;;;;;;;529.57;124.50;;;;;;;;;;5032550;28;20459;-76
2021/07/16 06:08:31;;;;;;;523.07;120.90;;;;;;;;;;5031986;28;21056;-76
2021/07/16 06:10:57;;;;;;;516.97;118.17;;;;;;;;;;5032762;28;20758;-77
2021/07/16 06:13:24;;;;;;;522.93;119.97;;;;;;;;;;5032698;28;20388;-77
2021/07/16 06:15:50;;;;;;;524.00;119.87;;;;;;;;;;5033147;28;20392;-77
2021/07/16 06:18:16;;;;;;;554.97;132.73;;;;;;;;;;5031090;28;20427;-77
2021/07/16 06:20:44;;;;;;;533.70;122.60;;;;;;;;;;5031216;28;20443;-77
2021/07/16 06:23:11;;;;;;;535.00;126.07;;;;;;;;;;5033054;28;20404;-76
2021/07/16 06:25:37;;;;;;;547.60;129.33;;;;;;;;;;5031998;28;20459;-77
2021/07/16 06:28:03;;;;;;;539.67;124.97;;;;;;;;;;5032578;28;20456;-77
2021/07/16 06:30:29;;;;;;;536.23;125.20;;;;;;;;;;5032713;28;20773;-76
2021/07/16 06:32:55;;;;;;;545.07;129.23;;;;;;;;;;5032453;28;20863;-76
2021/07/16 06:35:21;;;;;;;668.73;203.97;;;;;;;;;;5032401;28;20469;-76
2021/07/16 06:37:47;;;;;;;539.47;128.53;;;;;;;;;;5032870;28;20424;-77
2021/07/16 06:40:13;;;;;;;539.47;127.73;;;;;;;;;;5032658;28;20412;-77
2021/07/16 06:42:39;;;;;;;543.43;130.23;;;;;;;;;;5032542;28;20409;-77
2021/07/16 06:45:06;;;;;;;543.13;129.17;;;22.10;99.90;;;;;;5032464;28;20457;-77
2021/07/16 06:47:32;;;;;;;551.07;136.27;;;;;;;;;;5032394;28;20406;-77
2021/07/16 06:49:58;;;;;;;556.57;134.93;;;;;;;;;;5032037;28;20400;-77
2021/07/16 06:52:24;;;;;;;536.80;130.13;;;;;;;;;;5033058;28;20393;-76
2021/07/16 06:54:50;;;;;;;535.13;125.97;;;;;;;;;;5032431;28;20770;-76
2021/07/16 06:57:16;;;;;;;538.90;127.90;;;;;;;;;;5032469;28;20395;-76
2021/07/16 06:59:42;;;;;;;537.43;127.77;;;;;;;;;;5031981;28;20397;-77
2021/07/16 07:02:08;;;;;;;544.97;133.87;;;;;;;;;;5032247;28;20428;-76
2021/07/16 07:04:34;;;;;;;544.27;130.90;;;;;;;;;;5032301;28;20389;-76
2021/07/16 07:07:01;;;;;;;537.80;126.97;;;;;;;;;;5031928;28;20445;-76
2021/07/16 07:09:27;;;;;;;551.17;134.07;;;;;;;;;;5031862;28;20755;-77
2021/07/16 07:11:53;;;;;;;549.40;135.50;;;;;;;;;;5031949;28;20398;-77
2021/07/16 07:14:19;;;;;;;536.73;127.37;;;;;;;;;;5032252;28;20404;-77
2021/07/16 07:16:45;;;;;;;539.60;128.27;;;;;;;;;;5031638;28;20406;-77
2021/07/16 07:19:11;;;;;;;545.53;131.80;;;;;;;;;;5032090;28;20396;-77
2021/07/16 07:21:37;;;;;;;556.47;136.67;;;;;;;;;;5032519;28;20395;-77
2021/07/16 07:24:03;;;;;;;549.60;134.77;;;;;;;;;;5031767;28;20450;-77
2021/07/16 07:26:32;;;;;;;540.77;131.87;;;;;;;;;;5031958;28;20451;-76
2021/07/16 07:28:58;;;;;;;546.27;136.70;;;;;;;;;;5031990;28;20882;-76
2021/07/16 07:31:24;;;;;;;550.53;132.63;;;;;;;;;;5032287;28;20415;-77
2021/07/16 07:33:50;;;;;;;556.80;141.57;;;;;;;;;;5030012;28;20504;-76
2021/07/16 07:36:16;;;;;;;544.43;132.27;;;;;;;;;;5032069;28;20378;-77
2021/07/16 07:38:44;;;;;;;543.57;133.50;;;;;;;;;;5032132;28;20893;-77
2021/07/16 07:41:10;;;;;;;562.17;138.80;;;;;;;;;;5047128;28;20434;-77
2021/07/16 07:43:36;;;;;;;543.87;128.97;;;;;;;;;;5032037;28;20408;-77
2021/07/16 07:46:02;;;;;;;614.90;167.57;;;;;;;;;;5028138;28;20890;-77
2021/07/16 07:48:28;;;;;;;543.97;134.23;;;;;;;;;;5026315;28;20423;-76
2021/07/16 07:50:54;;;;;;;542.57;131.83;;;;;;;;;;5027813;28;20425;-76
2021/07/16 07:53:20;;;;;;;545.10;133.97;;;;;;;;;;5028851;28;20457;-76
2021/07/16 07:55:46;;;;;;;543.00;132.67;;;;;;;;;;5031399;28;20427;-76
2021/07/16 07:58:12;;;;;;;553.27;139.67;;;;;;;;;;5021655;28;20409;-76
2021/07/16 08:00:38;;;;;;;554.23;139.13;;;;;;;;;;5020255;28;20413;-77
2021/07/16 08:03:04;;;;;;;567.93;142.60;;;;;;;;;;5035133;28;20424;-77
2021/07/16 08:05:30;;;;;;;548.97;134.70;;;;;;;;;;5035349;28;20479;-77
2021/07/16 08:07:56;;;;;;;546.63;134.57;;;;;;;;;;5036950;28;20434;-76
2021/07/16 08:10:22;;;;;;;545.70;133.17;;;;;;;;;;5035118;28;20392;-76
2021/07/16 08:12:48;;;;;;;550.53;138.67;;;;;;;;;;5030482;28;20415;-76
2021/07/16 08:15:15;;;;;;;554.67;138.03;;;;;;;;;;5027647;28;20416;-77
2021/07/16 08:17:42;;;;;;;557.17;137.53;;;;;;;;;;5027696;28;20451;-76
2021/07/16 08:20:09;;;;;;;559.63;140.17;;;23.80;99.90;;;;;;5034120;28;20428;-76
2021/07/16 08:22:40;;;;;;;555.23;140.73;;;24.10;99.90;;;;;;5054077;28;20426;-77
2021/07/16 08:25:07;;;;;;;564.17;142.57;;;;;;;;;;5036522;28;20459;-77
2021/07/16 08:27:33;;;;;;;561.90;144.67;;;;;;;;;;5034077;28;20425;-77
2021/07/16 08:29:59;;;;;;;576.17;145.87;;;;;;;;;;5034935;28;20401;-77
2021/07/16 08:32:25;;;;;;;562.70;146.67;;;;;;;;;;5017330;28;20639;-77
2021/07/16 08:34:51;;;;;;;569.03;146.87;;;;;;;;;;5033207;28;20438;-77
2021/07/16 08:37:17;;;;;;;692.87;194.23;;;;;;;;;;5031489;28;20761;-77
2021/07/16 08:39:43;;;;;;;561.53;143.90;;;;;;;;;;5032414;28;20395;-77
2021/07/16 08:42:10;;;;;;;580.30;156.80;;;;;;;;;;5033258;28;20828;-77
2021/07/16 08:44:36;;;;;;;567.97;151.10;;;;;;;;;;5028969;28;20533;-77
2021/07/16 08:47:03;;;;;;;582.47;154.80;;;;;;;;;;5033866;28;20770;-77
2021/07/16 08:49:29;;;;;;;577.07;157.07;;;;;;;;;;5032319;28;20886;-76
2021/07/16 08:51:55;;;;;;;572.07;154.53;;;;;;;;;;5032883;28;20453;-77
2021/07/16 08:54:21;;;;;;;564.47;153.77;;;;;;;;;;5035088;28;20377;-76
2021/07/16 08:56:47;;;;;;;561.00;164.40;;;;;;;;;;5034335;28;20785;-76
2021/07/16 08:59:17;;;;;;;593.03;168.30;;;;;;;;;;5032154;28;20477;-76
2021/07/16 09:29:29;;;;;;;19.20;9.20;;;26.30;99.90;;;;;;5090204;27;20944;-75
2021/07/16 09:32:06;;;;;;;16.23;8.37;;;26.00;99.90;;;;;;5084543;28;20463;-75
2021/07/16 09:34:32;;;;;;;12.20;8.50;;;25.60;99.90;;;;;;5091278;28;20401;-75
2021/07/16 09:37:19;;;;;;;13.03;8.30;;;25.40;99.90;;;;;;5086193;28;20520;-75
2021/07/16 09:39:47;;;;;;;13.07;7.90;;;25.50;99.90;;;;;;5075640;28;20472;-76
2021/07/16 09:42:14;;;;;;;11.77;7.70;;;25.40;99.90;;;;;;5089490;28;20973;-75
2021/07/16 09:44:45;;;;;;;12.07;7.83;;;25.30;99.90;;;;;;5069741;28;20440;-82
2021/07/16 09:47:21;;;;;;;9.37;6.97;;;25.20;99.90;;;;;;5080757;28;20427;-82
2021/07/16 09:56:38;;;;;;;11.33;7.47;;;24.80;99.90;;;;;;5070360;28;20423;-80
2021/07/16 09:59:19;;;;;;;14.10;7.30;;;24.80;99.90;;;;;;5083167;28;20454;-81
2021/07/16 10:02:30;;;;;;;16.73;7.60;;;25.00;99.90;;;;;;5070311;28;20767;-82
2021/07/16 10:04:56;;;;;;;10.87;7.53;;;25.10;99.90;;;;;;5077091;28;20414;-79
2021/07/16 10:07:57;;;;;;;9.90;7.30;;;25.50;99.90;;;;;;5087090;28;20422;-79
2021/07/16 10:10:51;;;;;;;9.13;6.73;;;25.60;99.90;;;;;;5069873;28;20158;-80
2021/07/16 10:13:29;;;;;;;10.67;7.43;;;26.10;99.90;;;;;;5077386;28;20747;-80
2021/07/16 10:15:55;;;;;;;11.53;7.40;;;26.20;99.90;;;;;;5089615;28;20439;-80
2021/07/16 10:18:57;;;;;;;8.73;6.93;;;26.40;99.90;;;;;;5088795;28;20456;-80
2021/07/16 10:21:27;;;;;;;15.33;8.07;;;26.50;99.90;;;;;;5089570;28;20415;-77
2021/07/16 10:24:34;;;;;;;18.53;7.77;;;26.60;99.90;;;;;;5088499;28;20417;-78
2021/07/16 10:27:10;;;;;;;10.27;6.63;;;26.60;99.90;;;;;;5076797;28;20444;-78
2021/07/16 10:29:45;;;;;;;10.60;7.03;;;26.60;99.90;;;;;;5059902;28;20433;-74
2021/07/16 10:32:44;;;;;;;10.40;7.17;;;26.60;99.90;;;;;;5070969;28;20402;-73
2021/07/16 10:35:37;;;;;;;11.23;6.83;;;26.50;99.90;;;;;;5076838;28;20381;-76
2021/07/16 10:38:23;;;;;;;9.50;6.83;;;26.50;99.90;;;;;;5054028;28;20457;-75
2021/07/16 10:40:49;;;;;;;7.30;6.30;;;26.70;99.90;;;;;;5056527;28;20419;-75
2021/07/16 10:43:40;;;;;;;13.40;6.57;;;26.90;99.90;;;;;;5056415;28;20461;-75
2021/07/16 10:46:45;;;;;;;8.23;6.40;;;27.30;99.90;;;;;;5056300;28;20165;-75
2021/07/16 10:49:13;;;;;;;18.37;6.57;;;27.60;99.90;;;;;;5014533;28;20472;-74
2021/07/16 10:51:40;;;;;;;7.30;6.60;;;27.80;99.90;;;;;;5013037;28;20449;-73
2021/07/16 10:54:15;;;;;;;12.00;6.40;;;27.90;99.90;;;;;;5013995;28;20499;-73
2021/07/16 10:56:46;;;;;;;10.23;6.20;;;28.00;99.90;;;;;;5013949;28;20809;-73
2021/07/16 10:59:46;;;;;;;10.53;6.43;;;28.20;99.90;;;;;;5013895;28;20490;-73
2021/07/16 11:02:45;;;;;;;13.87;6.10;;;28.40;99.90;;;;;;5011738;28;20880;-73
2021/07/16 11:05:32;;;;;;;8.10;6.00;;;28.50;99.90;;;;;;5013167;28;20490;-75
2021/07/16 11:08:02;;;;;;;11.10;5.80;;;28.50;99.90;;;;;;5012893;28;20399;-75
2021/07/16 11:10:56;;;;;;;9.50;6.30;;;28.50;99.90;;;;;;5012822;28;21028;-75
2021/07/16 11:13:38;;;;;;;7.17;5.93;;;28.50;99.90;;;;;;5012639;28;20434;-75
2021/07/16 11:16:16;;;;;;;9.40;5.67;;;28.50;99.90;;;;;;5012724;28;20821;-75
2021/07/16 11:19:11;;;;;;;10.87;6.10;;;28.10;99.90;;;;;;5012649;28;20461;-75
2021/07/16 11:21:39;;;;;;;6.47;5.87;;;28.20;99.90;;;;;;4992925;28;20428;-75
2021/07/16 11:24:22;;;;;;;16.57;6.30;;;28.40;99.90;;;;;;5046579;28;20412;-75
2021/07/16 11:26:52;;;;;;;6.73;5.73;;;28.50;99.90;;;;;;5052314;28;20425;-75
2021/07/16 11:29:19;;;;;;;8.87;6.07;;;28.40;99.90;;;;;;5052132;28;20448;-75
2021/07/16 11:31:45;;;;;;;6.27;5.60;;;28.20;99.90;;;;;;5052296;28;20410;-75
2021/07/16 11:34:15;;;;;;;8.93;5.83;;;28.30;99.90;;;;;;5052553;28;21028;-75
2021/07/16 11:36:54;;;;;;;5.93;5.33;;;28.30;99.90;;;;;;5052127;28;20715;-75
2021/07/16 11:39:29;;;;;;;8.13;5.87;;;27.90;99.90;;;;;;5052094;28;20417;-75
2021/07/16 11:41:55;;;;;;;6.57;5.40;;;27.80;99.90;;;;;;5051157;28;20487;-75
2021/07/16 11:44:26;;;;;;;7.00;5.13;;;27.70;99.90;;;;;;5051930;28;20489;-75
2021/07/16 11:46:52;;;;;;;5.73;5.23;;;27.60;99.90;;;;;;5051986;28;20159;-75
2021/07/16 11:49:24;;;;;;;9.43;5.33;;;27.60;99.90;;;;;;5052293;28;20411;-75
2021/07/16 11:51:57;;;;;;;5.53;5.03;;;27.60;99.90;;;;;;5051643;28;20181;-75
2021/07/16 11:54:30;;;;;;;12.67;5.63;;;27.80;99.90;;;;;;5051819;28;20400;-75
2021/07/16 11:57:00;;;;;;;5.37;4.77;;;27.80;99.90;;;;;;5053055;28;20452;-75
2021/07/16 11:59:28;;;;;;;5.83;4.70;;;28.00;99.90;;;;;;5073584;28;20403;-75
2021/07/16 12:02:11;;;;;;;5.77;4.50;;;28.10;99.90;;;;;;5073954;28;20392;-75
2021/07/16 12:04:39;;;;;;;5.77;4.30;;;28.40;99.90;;;;;;5073903;28;20737;-75
2021/07/16 12:07:06;;;;;;;4.40;4.00;;;28.70;99.90;;;;;;5073393;28;20875;-75
2021/07/16 12:09:36;;;;;;;4.90;4.40;;;28.40;99.90;;;;;;5073497;28;20402;-75
2021/07/16 12:12:07;;;;;;;5.30;4.40;;;28.00;99.90;;;;;;5073673;28;20895;-75
2021/07/16 12:14:52;;;;;;;5.43;4.87;;;28.10;99.90;;;;;;5073851;28;20453;-75
2021/07/16 12:17:33;;;;;;;4.40;4.00;;;28.30;99.90;;;;;;5066220;28;20460;-75
2021/07/16 12:20:00;;;;;;;4.47;4.07;;;28.20;99.90;;;;;;5057272;28;20413;-74
2021/07/16 12:22:31;;;;;;;5.00;4.57;;;28.20;99.90;;;;;;5057598;28;20570;-74
2021/07/16 12:25:07;;;;;;;5.10;4.50;;;28.10;99.90;;;;;;5072560;28;20397;-74
2021/07/16 12:27:32;;;;;;;7.70;4.30;;;28.00;99.90;;;;;;5071135;28;20460;-73
2021/07/16 12:30:04;;;;;;;4.87;4.37;;;27.80;99.90;;;;;;5063602;28;20415;-73
2021/07/16 12:32:46;;;;;;;9.67;4.30;;;27.40;99.90;;;;;;5074139;28;20478;-72
2021/07/16 12:35:26;;;;;;;4.73;4.17;;;27.30;99.90;;;;;;5069662;28;20459;-74
2021/07/16 12:37:58;;;;;;;4.60;3.90;;;27.30;99.90;;;;;;5070611;28;20532;-74
2021/07/16 12:40:24;;;;;;;4.27;3.87;;;;;;;;;;5064760;28;20427;-73
2021/07/16 12:43:10;;;;;;;8.90;5.23;;;26.90;99.90;;;;;;5053889;28;20387;-73
2021/07/16 12:45:51;;;;;;;4.73;4.23;;;26.80;99.90;;;;;;5054259;28;20406;-73
2021/07/16 12:48:27;;;;;;;4.57;4.13;;;27.00;99.90;;;;;;5057552;28;20422;-74
2021/07/16 12:50:55;;;;;;;5.10;4.20;;;27.10;99.90;;;;;;5074369;28;20394;-74
2021/07/16 12:53:32;;;;;;;6.90;4.07;;;27.20;99.90;;;;;;5073423;28;20418;-75
2021/07/16 12:56:11;;;;;;;5.30;4.03;;;27.50;99.90;;;;;;5053539;28;20452;-74
2021/07/16 12:58:39;;;;;;;6.03;4.00;;;27.70;99.90;;;;;;5053807;28;20509;-74
2021/07/16 13:01:29;;;;;;;6.80;4.27;;;27.90;99.90;;;;;;5053832;28;20414;-74
2021/07/16 13:04:14;;;;;;;4.30;3.90;;;28.00;99.90;;;;;;5053892;28;20722;-74
2021/07/16 13:06:40;;;;;;;13.77;4.70;;;28.30;99.90;;;;;;5069644;28;20502;-75
2021/07/16 13:09:19;;;;;;;6.47;4.20;;;28.30;99.90;;;;;;5073959;28;20439;-74
2021/07/16 13:12:15;;;;;;;5.57;4.20;;;28.10;99.90;;;;;;5062230;28;20417;-74
2021/07/16 13:15:04;;;;;;;9.07;4.70;;;27.90;99.90;;;;;;5053902;28;20404;-75
2021/07/16 13:17:33;;;;;;;6.20;4.60;;;;;;;;;;5053509;28;20444;-75
2021/07/16 13:20:05;;;;;;;6.13;4.23;;;27.50;99.90;;;;;;5053890;28;20379;-73
2021/07/16 13:22:36;;;;;;;4.17;3.77;;;27.40;99.90;;;;;;5053705;28;20424;-72
2021/07/16 13:25:05;;;;;;;4.33;3.80;;;27.60;99.90;;;;;;5053097;28;20423;-72
2021/07/16 13:27:31;;;;;;;6.37;4.33;;;27.80;99.90;;;;;;5064184;28;20470;-72
2021/07/16 13:29:56;;;;;;;7.93;3.97;;;27.80;99.90;;;;;;5073502;28;20387;-72
2021/07/16 13:32:23;;;;;;;5.43;3.93;;;28.10;99.90;;;;;;5073512;28;20153;-72
2021/07/16 13:34:51;;;;;;;8.63;4.27;;;28.10;99.90;;;;;;5071643;28;20262;-75
2021/07/16 13:37:26;;;;;;;4.53;4.00;;;28.10;99.90;;;;;;5058934;28;20490;-76
2021/07/16 13:39:53;;;;;;;3.60;3.30;;;28.10;99.90;;;;;;5053700;28;20789;-76
2021/07/16 13:42:19;;;;;;;9.10;3.90;;;28.00;99.90;;;;;;5053653;28;20402;-76
2021/07/16 13:44:57;;;;;;;4.10;3.80;;;28.30;99.90;;;;;;5062195;28;20742;-75
2021/07/16 13:47:33;;;;;;;6.67;4.27;;;28.30;99.90;;;;;;5073811;28;20503;-76
2021/07/16 13:49:59;;;;;;;4.80;3.63;;;28.40;99.90;;;;;;5073460;28;20419;-73
2021/07/16 13:52:25;;;;;;;3.83;3.53;;;28.50;99.90;;;;;;5073337;28;20395;-73
2021/07/16 13:54:50;;;;;;;4.00;3.70;;;28.50;99.90;;;;;;5073051;28;20182;-73
2021/07/16 13:57:20;;;;;;;4.60;3.60;;;28.50;99.90;;;;;;5058695;28;20205;-73
2021/07/16 13:59:46;;;;;;;6.33;3.77;;;28.70;99.90;;;;;;5053247;28;20625;-73
2021/07/16 14:02:11;;;;;;;10.53;3.60;;;28.60;99.90;;;;;;5053269;28;20493;-73
2021/07/16 14:04:37;;;;;;;4.03;3.63;;;28.80;99.90;;;;;;5055096;28;20500;-73
2021/07/16 14:07:03;;;;;;;5.83;4.10;;;28.80;99.90;;;;;;5057806;28;20718;-76
2021/07/16 14:09:39;;;;;;;4.00;3.70;;;28.70;99.90;;;;;;5057145;28;20209;-76
2021/07/16 14:12:15;;;;;;;3.60;3.30;;;28.80;99.90;;;;;;5057500;28;20429;-76